sensor_id;sensor_type;location;lat;lon;timestamp;temperature;humidity
69359;HTU21D;56520;49.066;8.660;2023-07-31T00:01:02;17.50;66.70
69359;HTU21D;56520;49.066;8.660;2023-07-31T00:03:28;17.46;66.81
69359;HTU21D;56520;49.066;8.660;2023-07-31T00:05:53;17.41;66.98
69359;HTU21D;56520;49.066;8.660;2023-07-31T00:08:18;17.36;67.23
69359;HTU21D;56520;49.066;8.660;2023-07-31T00:10:44;17.32;67.32
69359;HTU21D;56520;49.066;8.660;2023-07-31T00:13:09;17.29;67.43
69359;HTU21D;56520;49.066;8.660;2023-07-31T00:15:34;17.24;67.62
69359;HTU21D;56520;49.066;8.660;2023-07-31T00:18:00;17.19;67.81
69359;HTU21D;56520;49.066;8.660;2023-07-31T00:20:26;17.15;67.91
69359;HTU21D;56520;49.066;8.660;2023-07-31T00:22:52;17.10;68.01
69359;HTU21D;56520;49.066;8.660;2023-07-31T00:25:17;17.10;67.95
69359;HTU21D;56520;49.066;8.660;2023-07-31T00:27:42;17.10;68.07
69359;HTU21D;56520;49.066;8.660;2023-07-31T00:30:10;17.13;68.35
69359;HTU21D;56520;49.066;8.660;2023-07-31T00:32:36;17.18;67.96
69359;HTU21D;56520;49.066;8.660;2023-07-31T00:35:01;17.21;68.00
69359;HTU21D;56520;49.066;8.660;2023-07-31T00:37:27;17.22;68.08
69359;HTU21D;56520;49.066;8.660;2023-07-31T00:39:52;17.26;67.84
69359;HTU21D;56520;49.066;8.660;2023-07-31T00:42:18;17.32;67.83
69359;HTU21D;56520;49.066;8.660;2023-07-31T00:44:43;17.31;67.81
69359;HTU21D;56520;49.066;8.660;2023-07-31T00:47:09;17.33;67.68
69359;HTU21D;56520;49.066;8.660;2023-07-31T00:49:34;17.34;67.57
69359;HTU21D;56520;49.066;8.660;2023-07-31T00:52:00;17.37;67.57
69359;HTU21D;56520;49.066;8.660;2023-07-31T00:54:25;17.34;67.55
69359;HTU21D;56520;49.066;8.660;2023-07-31T00:56:52;17.32;67.81
69359;HTU21D;56520;49.066;8.660;2023-07-31T00:59:19;17.26;67.91
69359;HTU21D;56520;49.066;8.660;2023-07-31T01:01:45;17.22;68.20
69359;HTU21D;56520;49.066;8.660;2023-07-31T01:04:11;17.15;68.46
69359;HTU21D;56520;49.066;8.660;2023-07-31T01:06:44;17.07;68.57
69359;HTU21D;56520;49.066;8.660;2023-07-31T01:09:37;17.01;68.73
69359;HTU21D;56520;49.066;8.660;2023-07-31T01:12:04;16.96;68.74
69359;HTU21D;56520;49.066;8.660;2023-07-31T01:14:31;16.90;69.00
69359;HTU21D;56520;49.066;8.660;2023-07-31T01:16:57;16.84;69.36
69359;HTU21D;56520;49.066;8.660;2023-07-31T01:19:24;16.76;69.61
69359;HTU21D;56520;49.066;8.660;2023-07-31T01:22:21;16.67;69.61
69359;HTU21D;56520;49.066;8.660;2023-07-31T01:28:04;16.55;70.19
69359;HTU21D;56520;49.066;8.660;2023-07-31T01:30:37;16.48;70.56
69359;HTU21D;56520;49.066;8.660;2023-07-31T01:33:09;16.43;70.84
69359;HTU21D;56520;49.066;8.660;2023-07-31T01:35:35;16.39;71.32
69359;HTU21D;56520;49.066;8.660;2023-07-31T01:38:01;16.35;71.77
69359;HTU21D;56520;49.066;8.660;2023-07-31T01:40:29;16.31;71.85
69359;HTU21D;56520;49.066;8.660;2023-07-31T01:42:54;16.26;72.00
69359;HTU21D;56520;49.066;8.660;2023-07-31T01:45:20;16.22;72.40
69359;HTU21D;56520;49.066;8.660;2023-07-31T01:47:45;16.18;72.44
69359;HTU21D;56520;49.066;8.660;2023-07-31T01:50:11;16.14;72.66
69359;HTU21D;56520;49.066;8.660;2023-07-31T01:52:36;16.12;72.86
69359;HTU21D;56520;49.066;8.660;2023-07-31T01:55:01;16.08;73.62
69359;HTU21D;56520;49.066;8.660;2023-07-31T01:57:27;16.04;73.56
69359;HTU21D;56520;49.066;8.660;2023-07-31T01:59:52;16.02;73.94
69359;HTU21D;56520;49.066;8.660;2023-07-31T02:02:19;15.99;73.93
69359;HTU21D;56520;49.066;8.660;2023-07-31T02:04:44;15.99;74.21
69359;HTU21D;56520;49.066;8.660;2023-07-31T02:07:10;15.96;74.51
69359;HTU21D;56520;49.066;8.660;2023-07-31T02:09:35;15.96;74.69
69359;HTU21D;56520;49.066;8.660;2023-07-31T02:12:01;15.95;74.65
69359;HTU21D;56520;49.066;8.660;2023-07-31T02:14:27;15.91;74.64
69359;HTU21D;56520;49.066;8.660;2023-07-31T02:16:54;15.87;74.67
69359;HTU21D;56520;49.066;8.660;2023-07-31T02:19:20;15.85;74.76
69359;HTU21D;56520;49.066;8.660;2023-07-31T02:21:45;15.83;74.85
69359;HTU21D;56520;49.066;8.660;2023-07-31T02:24:11;15.81;75.72
69359;HTU21D;56520;49.066;8.660;2023-07-31T02:26:36;15.77;75.96
69359;HTU21D;56520;49.066;8.660;2023-07-31T02:29:01;15.72;76.50
69359;HTU21D;56520;49.066;8.660;2023-07-31T02:31:27;15.67;76.28
69359;HTU21D;56520;49.066;8.660;2023-07-31T02:33:52;15.62;76.15
69359;HTU21D;56520;49.066;8.660;2023-07-31T02:36:17;15.61;76.03
69359;HTU21D;56520;49.066;8.660;2023-07-31T02:38:43;15.59;75.85
69359;HTU21D;56520;49.066;8.660;2023-07-31T02:41:08;15.59;75.73
69359;HTU21D;56520;49.066;8.660;2023-07-31T02:43:34;15.58;75.53
69359;HTU21D;56520;49.066;8.660;2023-07-31T02:45:59;15.59;75.47
69359;HTU21D;56520;49.066;8.660;2023-07-31T02:48:24;15.60;75.47
69359;HTU21D;56520;49.066;8.660;2023-07-31T02:50:50;15.62;75.54
69359;HTU21D;56520;49.066;8.660;2023-07-31T02:53:15;15.65;75.93
69359;HTU21D;56520;49.066;8.660;2023-07-31T02:55:41;15.65;75.79
69359;HTU21D;56520;49.066;8.660;2023-07-31T02:58:06;15.66;75.80
69359;HTU21D;56520;49.066;8.660;2023-07-31T03:00:32;15.66;75.63
69359;HTU21D;56520;49.066;8.660;2023-07-31T03:02:57;15.66;75.54
69359;HTU21D;56520;49.066;8.660;2023-07-31T03:05:22;15.66;75.62
69359;HTU21D;56520;49.066;8.660;2023-07-31T03:07:48;15.63;75.67
69359;HTU21D;56520;49.066;8.660;2023-07-31T03:10:13;15.59;75.94
69359;HTU21D;56520;49.066;8.660;2023-07-31T03:12:40;15.55;76.12
69359;HTU21D;56520;49.066;8.660;2023-07-31T03:15:06;15.51;76.26
69359;HTU21D;56520;49.066;8.660;2023-07-31T03:17:31;15.47;76.40
69359;HTU21D;56520;49.066;8.660;2023-07-31T03:20:00;15.46;76.61
69359;HTU21D;56520;49.066;8.660;2023-07-31T03:22:37;15.46;76.75
69359;HTU21D;56520;49.066;8.660;2023-07-31T03:25:03;15.42;76.95
69359;HTU21D;56520;49.066;8.660;2023-07-31T03:27:28;15.42;77.24
69359;HTU21D;56520;49.066;8.660;2023-07-31T03:29:54;15.41;77.44
69359;HTU21D;56520;49.066;8.660;2023-07-31T03:32:19;15.39;77.49
69359;HTU21D;56520;49.066;8.660;2023-07-31T03:34:45;15.37;77.60
69359;HTU21D;56520;49.066;8.660;2023-07-31T03:37:10;15.36;77.50
69359;HTU21D;56520;49.066;8.660;2023-07-31T03:39:36;15.33;77.40
69359;HTU21D;56520;49.066;8.660;2023-07-31T03:42:01;15.33;77.26
69359;HTU21D;56520;49.066;8.660;2023-07-31T03:44:26;15.34;77.31
69359;HTU21D;56520;49.066;8.660;2023-07-31T03:46:52;15.32;76.99
69359;HTU21D;56520;49.066;8.660;2023-07-31T03:49:17;15.36;76.81
69359;HTU21D;56520;49.066;8.660;2023-07-31T03:51:53;15.37;76.64
69359;HTU21D;56520;49.066;8.660;2023-07-31T03:54:19;15.37;76.54
69359;HTU21D;56520;49.066;8.660;2023-07-31T03:56:44;15.39;76.63
69359;HTU21D;56520;49.066;8.660;2023-07-31T03:59:09;15.40;76.65
69359;HTU21D;56520;49.066;8.660;2023-07-31T04:01:35;15.41;76.47
69359;HTU21D;56520;49.066;8.660;2023-07-31T04:04:03;15.45;76.41
69359;HTU21D;56520;49.066;8.660;2023-07-31T04:06:28;15.45;76.37
69359;HTU21D;56520;49.066;8.660;2023-07-31T04:08:54;15.49;76.34
69359;HTU21D;56520;49.066;8.660;2023-07-31T04:11:19;15.51;76.47
69359;HTU21D;56520;49.066;8.660;2023-07-31T04:13:45;15.53;76.62
69359;HTU21D;56520;49.066;8.660;2023-07-31T04:16:10;15.55;76.59
69359;HTU21D;56520;49.066;8.660;2023-07-31T04:18:35;15.56;76.47
69359;HTU21D;56520;49.066;8.660;2023-07-31T04:21:01;15.58;76.37
69359;HTU21D;56520;49.066;8.660;2023-07-31T04:23:27;15.62;76.24
69359;HTU21D;56520;49.066;8.660;2023-07-31T04:25:53;15.65;76.18
69359;HTU21D;56520;49.066;8.660;2023-07-31T04:28:18;15.67;76.08
69359;HTU21D;56520;49.066;8.660;2023-07-31T04:30:44;15.69;75.98
69359;HTU21D;56520;49.066;8.660;2023-07-31T04:33:09;15.71;76.05
69359;HTU21D;56520;49.066;8.660;2023-07-31T04:35:34;15.72;76.03
69359;HTU21D;56520;49.066;8.660;2023-07-31T04:38:00;15.75;75.90
69359;HTU21D;56520;49.066;8.660;2023-07-31T04:40:25;15.77;75.98
69359;HTU21D;56520;49.066;8.660;2023-07-31T04:42:51;15.81;75.87
69359;HTU21D;56520;49.066;8.660;2023-07-31T04:45:16;15.83;75.92
69359;HTU21D;56520;49.066;8.660;2023-07-31T04:47:42;15.85;75.78
69359;HTU21D;56520;49.066;8.660;2023-07-31T04:50:08;15.89;75.67
69359;HTU21D;56520;49.066;8.660;2023-07-31T04:52:33;15.91;75.56
69359;HTU21D;56520;49.066;8.660;2023-07-31T04:54:59;15.93;75.53
69359;HTU21D;56520;49.066;8.660;2023-07-31T04:57:24;15.98;75.59
69359;HTU21D;56520;49.066;8.660;2023-07-31T04:59:49;16.01;75.61
69359;HTU21D;56520;49.066;8.660;2023-07-31T05:02:15;16.03;75.60
69359;HTU21D;56520;49.066;8.660;2023-07-31T05:04:40;16.06;75.44
69359;HTU21D;56520;49.066;8.660;2023-07-31T05:07:05;16.13;75.40
69359;HTU21D;56520;49.066;8.660;2023-07-31T05:09:31;16.17;75.13
69359;HTU21D;56520;49.066;8.660;2023-07-31T05:11:56;16.20;75.07
69359;HTU21D;56520;49.066;8.660;2023-07-31T05:14:21;16.24;75.28
69359;HTU21D;56520;49.066;8.660;2023-07-31T05:16:47;16.25;75.24
69359;HTU21D;56520;49.066;8.660;2023-07-31T05:19:12;16.26;75.17
69359;HTU21D;56520;49.066;8.660;2023-07-31T05:21:38;16.30;75.09
69359;HTU21D;56520;49.066;8.660;2023-07-31T05:24:04;16.31;75.31
69359;HTU21D;56520;49.066;8.660;2023-07-31T05:26:30;16.33;75.39
69359;HTU21D;56520;49.066;8.660;2023-07-31T05:28:55;16.36;75.50
69359;HTU21D;56520;49.066;8.660;2023-07-31T05:31:21;16.37;75.40
69359;HTU21D;56520;49.066;8.660;2023-07-31T05:33:47;16.44;75.49
69359;HTU21D;56520;49.066;8.660;2023-07-31T05:36:15;16.50;75.67
69359;HTU21D;56520;49.066;8.660;2023-07-31T05:38:40;16.60;75.52
69359;HTU21D;56520;49.066;8.660;2023-07-31T05:41:06;16.67;75.82
69359;HTU21D;56520;49.066;8.660;2023-07-31T05:43:31;16.76;75.64
69359;HTU21D;56520;49.066;8.660;2023-07-31T05:45:57;16.82;75.39
69359;HTU21D;56520;49.066;8.660;2023-07-31T05:48:22;16.92;75.12
69359;HTU21D;56520;49.066;8.660;2023-07-31T05:50:47;17.00;74.99
69359;HTU21D;56520;49.066;8.660;2023-07-31T05:53:13;17.06;74.40
69359;HTU21D;56520;49.066;8.660;2023-07-31T05:55:38;17.16;74.04
69359;HTU21D;56520;49.066;8.660;2023-07-31T05:58:03;17.24;74.02
69359;HTU21D;56520;49.066;8.660;2023-07-31T06:00:29;17.35;72.90
69359;HTU21D;56520;49.066;8.660;2023-07-31T06:02:54;17.45;73.30
69359;HTU21D;56520;49.066;8.660;2023-07-31T06:05:20;17.51;73.38
69359;HTU21D;56520;49.066;8.660;2023-07-31T06:07:45;17.58;73.28
69359;HTU21D;56520;49.066;8.660;2023-07-31T06:10:11;17.62;73.28
69359;HTU21D;56520;49.066;8.660;2023-07-31T06:12:36;17.67;73.17
69359;HTU21D;56520;49.066;8.660;2023-07-31T06:15:03;17.73;71.96
69359;HTU21D;56520;49.066;8.660;2023-07-31T06:17:28;17.82;71.46
69359;HTU21D;56520;49.066;8.660;2023-07-31T06:19:57;17.89;71.73
69359;HTU21D;56520;49.066;8.660;2023-07-31T06:22:22;17.95;70.71
69359;HTU21D;56520;49.066;8.660;2023-07-31T06:24:48;18.03;70.26
69359;HTU21D;56520;49.066;8.660;2023-07-31T06:27:13;18.05;70.62
69359;HTU21D;56520;49.066;8.660;2023-07-31T06:29:38;18.10;70.81
69359;HTU21D;56520;49.066;8.660;2023-07-31T06:32:04;18.17;70.85
69359;HTU21D;56520;49.066;8.660;2023-07-31T06:34:29;18.26;70.96
69359;HTU21D;56520;49.066;8.660;2023-07-31T06:36:56;18.35;71.02
69359;HTU21D;56520;49.066;8.660;2023-07-31T06:39:21;18.42;71.13
69359;HTU21D;56520;49.066;8.660;2023-07-31T06:41:47;18.47;70.71
69359;HTU21D;56520;49.066;8.660;2023-07-31T06:44:12;18.54;67.83
69359;HTU21D;56520;49.066;8.660;2023-07-31T06:46:38;18.61;68.40
69359;HTU21D;56520;49.066;8.660;2023-07-31T06:49:03;18.72;68.39
69359;HTU21D;56520;49.066;8.660;2023-07-31T06:51:28;18.89;68.04
69359;HTU21D;56520;49.066;8.660;2023-07-31T06:53:56;19.08;66.25
69359;HTU21D;56520;49.066;8.660;2023-07-31T06:56:22;19.26;66.00
69359;HTU21D;56520;49.066;8.660;2023-07-31T06:58:47;19.43;64.41
69359;HTU21D;56520;49.066;8.660;2023-07-31T07:01:13;19.58;61.23
69359;HTU21D;56520;49.066;8.660;2023-07-31T07:03:38;19.76;60.86
69359;HTU21D;56520;49.066;8.660;2023-07-31T07:06:04;19.83;60.67
69359;HTU21D;56520;49.066;8.660;2023-07-31T07:08:29;19.92;60.37
69359;HTU21D;56520;49.066;8.660;2023-07-31T07:10:54;19.84;61.65
69359;HTU21D;56520;49.066;8.660;2023-07-31T07:13:21;19.77;62.46
69359;HTU21D;56520;49.066;8.660;2023-07-31T07:15:50;19.82;61.54
69359;HTU21D;56520;49.066;8.660;2023-07-31T07:18:17;19.90;59.69
69359;HTU21D;56520;49.066;8.660;2023-07-31T07:20:53;19.90;61.03
69359;HTU21D;56520;49.066;8.660;2023-07-31T07:23:18;19.96;60.61
69359;HTU21D;56520;49.066;8.660;2023-07-31T07:25:45;19.99;61.69
69359;HTU21D;56520;49.066;8.660;2023-07-31T07:28:11;20.07;59.78
69359;HTU21D;56520;49.066;8.660;2023-07-31T07:30:36;20.17;60.53
69359;HTU21D;56520;49.066;8.660;2023-07-31T07:33:02;20.17;61.07
69359;HTU21D;56520;49.066;8.660;2023-07-31T07:35:27;20.25;61.47
69359;HTU21D;56520;49.066;8.660;2023-07-31T07:37:53;20.34;61.87
69359;HTU21D;56520;49.066;8.660;2023-07-31T07:40:19;20.42;61.04
69359;HTU21D;56520;49.066;8.660;2023-07-31T07:42:45;20.44;61.18
69359;HTU21D;56520;49.066;8.660;2023-07-31T07:45:10;20.55;58.58
69359;HTU21D;56520;49.066;8.660;2023-07-31T07:47:35;20.49;59.56
69359;HTU21D;56520;49.066;8.660;2023-07-31T07:50:01;20.43;60.17
69359;HTU21D;56520;49.066;8.660;2023-07-31T07:52:29;20.42;59.32
69359;HTU21D;56520;49.066;8.660;2023-07-31T07:54:57;20.34;60.07
69359;HTU21D;56520;49.066;8.660;2023-07-31T07:57:22;20.35;61.12
69359;HTU21D;56520;49.066;8.660;2023-07-31T07:59:48;20.44;59.93
69359;HTU21D;56520;49.066;8.660;2023-07-31T08:02:13;20.44;60.21
69359;HTU21D;56520;49.066;8.660;2023-07-31T08:04:39;20.46;60.80
69359;HTU21D;56520;49.066;8.660;2023-07-31T08:07:04;20.59;57.59
69359;HTU21D;56520;49.066;8.660;2023-07-31T08:09:29;20.63;58.51
69359;HTU21D;56520;49.066;8.660;2023-07-31T08:11:55;20.60;60.17
69359;HTU21D;56520;49.066;8.660;2023-07-31T08:14:23;20.58;59.51
69359;HTU21D;56520;49.066;8.660;2023-07-31T08:16:48;20.58;58.58
69359;HTU21D;56520;49.066;8.660;2023-07-31T08:19:13;20.51;58.90
69359;HTU21D;56520;49.066;8.660;2023-07-31T08:21:39;20.48;59.12
69359;HTU21D;56520;49.066;8.660;2023-07-31T08:24:04;20.41;58.96
69359;HTU21D;56520;49.066;8.660;2023-07-31T08:26:30;20.44;58.92
69359;HTU21D;56520;49.066;8.660;2023-07-31T08:28:55;20.43;58.70
69359;HTU21D;56520;49.066;8.660;2023-07-31T08:31:20;20.53;58.35
69359;HTU21D;56520;49.066;8.660;2023-07-31T08:33:46;20.54;58.76
69359;HTU21D;56520;49.066;8.660;2023-07-31T08:36:11;20.55;59.41
69359;HTU21D;56520;49.066;8.660;2023-07-31T08:38:37;20.60;59.80
69359;HTU21D;56520;49.066;8.660;2023-07-31T08:41:03;20.72;58.20
69359;HTU21D;56520;49.066;8.660;2023-07-31T08:43:30;20.78;57.90
69359;HTU21D;56520;49.066;8.660;2023-07-31T08:45:56;20.78;57.58
69359;HTU21D;56520;49.066;8.660;2023-07-31T08:48:23;20.92;56.71
69359;HTU21D;56520;49.066;8.660;2023-07-31T08:50:49;20.95;56.79
69359;HTU21D;56520;49.066;8.660;2023-07-31T08:53:15;21.13;56.28
69359;HTU21D;56520;49.066;8.660;2023-07-31T08:55:42;21.33;56.45
69359;HTU21D;56520;49.066;8.660;2023-07-31T08:58:08;21.48;55.18
69359;HTU21D;56520;49.066;8.660;2023-07-31T09:00:34;21.49;56.10
69359;HTU21D;56520;49.066;8.660;2023-07-31T09:05:33;21.55;56.04
69359;HTU21D;56520;49.066;8.660;2023-07-31T09:08:00;21.64;55.04
69359;HTU21D;56520;49.066;8.660;2023-07-31T09:10:27;21.61;56.07
69359;HTU21D;56520;49.066;8.660;2023-07-31T09:12:52;21.68;56.06
69359;HTU21D;56520;49.066;8.660;2023-07-31T09:15:18;21.88;55.77
69359;HTU21D;56520;49.066;8.660;2023-07-31T09:17:44;21.98;56.20
69359;HTU21D;56520;49.066;8.660;2023-07-31T09:20:20;22.33;56.16
69359;HTU21D;56520;49.066;8.660;2023-07-31T09:22:49;22.93;51.42
69359;HTU21D;56520;49.066;8.660;2023-07-31T09:25:19;23.11;50.86
69359;HTU21D;56520;49.066;8.660;2023-07-31T09:30:14;23.09;51.50
69359;HTU21D;56520;49.066;8.660;2023-07-31T09:32:40;23.29;51.25
69359;HTU21D;56520;49.066;8.660;2023-07-31T09:35:32;23.47;50.62
69359;HTU21D;56520;49.066;8.660;2023-07-31T09:38:10;23.44;50.83
69359;HTU21D;56520;49.066;8.660;2023-07-31T09:40:37;23.54;49.55
69359;HTU21D;56520;49.066;8.660;2023-07-31T09:43:04;23.61;50.01
69359;HTU21D;56520;49.066;8.660;2023-07-31T09:45:33;23.77;48.89
69359;HTU21D;56520;49.066;8.660;2023-07-31T09:47:59;23.75;49.51
69359;HTU21D;56520;49.066;8.660;2023-07-31T09:50:24;23.75;50.29
69359;HTU21D;56520;49.066;8.660;2023-07-31T09:52:51;23.91;50.92
69359;HTU21D;56520;49.066;8.660;2023-07-31T09:55:17;24.18;48.79
69359;HTU21D;56520;49.066;8.660;2023-07-31T09:57:48;24.29;49.85
69359;HTU21D;56520;49.066;8.660;2023-07-31T10:00:15;24.49;49.42
69359;HTU21D;56520;49.066;8.660;2023-07-31T10:02:46;24.55;46.57
69359;HTU21D;56520;49.066;8.660;2023-07-31T10:05:14;24.30;46.68
69359;HTU21D;56520;49.066;8.660;2023-07-31T10:07:42;23.87;49.13
69359;HTU21D;56520;49.066;8.660;2023-07-31T10:10:08;23.65;49.34
69359;HTU21D;56520;49.066;8.660;2023-07-31T10:12:37;23.46;49.43
69359;HTU21D;56520;49.066;8.660;2023-07-31T10:15:04;23.24;50.40
69359;HTU21D;56520;49.066;8.660;2023-07-31T10:17:31;23.09;51.59
69359;HTU21D;56520;49.066;8.660;2023-07-31T10:19:58;23.15;52.01
69359;HTU21D;56520;49.066;8.660;2023-07-31T10:22:25;23.17;51.62
69359;HTU21D;56520;49.066;8.660;2023-07-31T10:24:52;23.20;51.24
69359;HTU21D;56520;49.066;8.660;2023-07-31T10:27:19;23.32;50.73
69359;HTU21D;56520;49.066;8.660;2023-07-31T10:29:46;23.24;51.37
69359;HTU21D;56520;49.066;8.660;2023-07-31T10:32:14;23.11;52.20
69359;HTU21D;56520;49.066;8.660;2023-07-31T10:34:41;23.03;50.96
69359;HTU21D;56520;49.066;8.660;2023-07-31T10:37:27;22.92;51.64
69359;HTU21D;56520;49.066;8.660;2023-07-31T10:40:17;22.80;52.82
69359;HTU21D;56520;49.066;8.660;2023-07-31T10:42:52;22.96;53.08
69359;HTU21D;56520;49.066;8.660;2023-07-31T10:45:37;22.91;51.43
69359;HTU21D;56520;49.066;8.660;2023-07-31T10:50:30;22.61;53.04
69359;HTU21D;56520;49.066;8.660;2023-07-31T10:52:58;22.60;52.90
69359;HTU21D;56520;49.066;8.660;2023-07-31T10:55:31;22.69;53.75
69359;HTU21D;56520;49.066;8.660;2023-07-31T10:58:05;23.00;53.52
69359;HTU21D;56520;49.066;8.660;2023-07-31T11:00:31;23.18;53.14
69359;HTU21D;56520;49.066;8.660;2023-07-31T11:05:50;23.62;50.74
69359;HTU21D;56520;49.066;8.660;2023-07-31T11:08:32;23.55;49.37
69359;HTU21D;56520;49.066;8.660;2023-07-31T11:13:26;23.25;50.14
69359;HTU21D;56520;49.066;8.660;2023-07-31T11:15:52;23.12;50.92
69359;HTU21D;56520;49.066;8.660;2023-07-31T11:18:17;23.06;51.53
69359;HTU21D;56520;49.066;8.660;2023-07-31T11:20:43;23.14;52.21
69359;HTU21D;56520;49.066;8.660;2023-07-31T11:23:09;23.32;51.49
69359;HTU21D;56520;49.066;8.660;2023-07-31T11:25:36;23.37;51.72
69359;HTU21D;56520;49.066;8.660;2023-07-31T11:28:07;23.50;50.69
69359;HTU21D;56520;49.066;8.660;2023-07-31T11:30:34;23.43;52.29
69359;HTU21D;56520;49.066;8.660;2023-07-31T11:33:01;23.43;51.76
69359;HTU21D;56520;49.066;8.660;2023-07-31T11:35:35;23.58;51.27
69359;HTU21D;56520;49.066;8.660;2023-07-31T11:38:02;23.54;51.72
69359;HTU21D;56520;49.066;8.660;2023-07-31T11:40:28;23.61;50.80
69359;HTU21D;56520;49.066;8.660;2023-07-31T11:42:57;23.60;50.05
69359;HTU21D;56520;49.066;8.660;2023-07-31T11:45:25;23.55;50.08
69359;HTU21D;56520;49.066;8.660;2023-07-31T11:47:52;23.43;50.32
69359;HTU21D;56520;49.066;8.660;2023-07-31T11:50:18;23.24;51.43
69359;HTU21D;56520;49.066;8.660;2023-07-31T11:52:45;23.11;52.29
69359;HTU21D;56520;49.066;8.660;2023-07-31T11:55:11;23.00;52.39
69359;HTU21D;56520;49.066;8.660;2023-07-31T11:57:39;23.05;53.44
69359;HTU21D;56520;49.066;8.660;2023-07-31T12:00:06;23.23;51.44
69359;HTU21D;56520;49.066;8.660;2023-07-31T12:02:33;23.13;52.64
69359;HTU21D;56520;49.066;8.660;2023-07-31T12:04:59;23.15;52.68
69359;HTU21D;56520;49.066;8.660;2023-07-31T12:07:24;23.22;51.02
69359;HTU21D;56520;49.066;8.660;2023-07-31T12:09:56;23.36;50.84
69359;HTU21D;56520;49.066;8.660;2023-07-31T12:12:23;23.43;51.15
69359;HTU21D;56520;49.066;8.660;2023-07-31T12:14:49;23.69;49.89
69359;HTU21D;56520;49.066;8.660;2023-07-31T12:17:16;23.60;51.51
69359;HTU21D;56520;49.066;8.660;2023-07-31T12:19:41;23.79;51.69
69359;HTU21D;56520;49.066;8.660;2023-07-31T12:22:15;24.03;49.66
69359;HTU21D;56520;49.066;8.660;2023-07-31T12:24:42;24.25;49.76
69359;HTU21D;56520;49.066;8.660;2023-07-31T12:27:14;24.33;50.47
69359;HTU21D;56520;49.066;8.660;2023-07-31T12:29:42;24.56;50.81
69359;HTU21D;56520;49.066;8.660;2023-07-31T12:32:22;24.99;48.82
69359;HTU21D;56520;49.066;8.660;2023-07-31T12:34:49;24.92;49.27
69359;HTU21D;56520;49.066;8.660;2023-07-31T12:37:14;24.75;48.46
69359;HTU21D;56520;49.066;8.660;2023-07-31T12:39:40;24.59;48.73
69359;HTU21D;56520;49.066;8.660;2023-07-31T12:42:05;24.40;48.79
69359;HTU21D;56520;49.066;8.660;2023-07-31T12:44:31;24.17;49.98
69359;HTU21D;56520;49.066;8.660;2023-07-31T12:46:56;24.18;50.74
69359;HTU21D;56520;49.066;8.660;2023-07-31T12:49:22;24.20;49.93
69359;HTU21D;56520;49.066;8.660;2023-07-31T12:51:47;24.15;50.02
69359;HTU21D;56520;49.066;8.660;2023-07-31T12:54:13;24.16;50.27
69359;HTU21D;56520;49.066;8.660;2023-07-31T12:56:39;24.23;49.75
69359;HTU21D;56520;49.066;8.660;2023-07-31T12:59:05;24.32;49.44
69359;HTU21D;56520;49.066;8.660;2023-07-31T13:01:31;24.61;49.96
69359;HTU21D;56520;49.066;8.660;2023-07-31T13:03:57;24.84;49.17
69359;HTU21D;56520;49.066;8.660;2023-07-31T13:06:22;24.98;49.74
69359;HTU21D;56520;49.066;8.660;2023-07-31T13:08:48;25.05;47.99
69359;HTU21D;56520;49.066;8.660;2023-07-31T13:11:13;24.99;48.89
69359;HTU21D;56520;49.066;8.660;2023-07-31T13:13:38;24.90;49.37
69359;HTU21D;56520;49.066;8.660;2023-07-31T13:16:04;24.86;49.06
69359;HTU21D;56520;49.066;8.660;2023-07-31T13:18:29;24.75;49.83
69359;HTU21D;56520;49.066;8.660;2023-07-31T13:20:55;24.84;49.82
69359;HTU21D;56520;49.066;8.660;2023-07-31T13:23:20;25.13;48.64
69359;HTU21D;56520;49.066;8.660;2023-07-31T13:25:45;25.07;47.82
69359;HTU21D;56520;49.066;8.660;2023-07-31T13:28:11;24.91;48.72
69359;HTU21D;56520;49.066;8.660;2023-07-31T13:30:36;24.86;48.70
69359;HTU21D;56520;49.066;8.660;2023-07-31T13:33:02;24.75;48.93
69359;HTU21D;56520;49.066;8.660;2023-07-31T13:35:27;24.55;49.52
69359;HTU21D;56520;49.066;8.660;2023-07-31T13:37:53;24.54;48.65
69359;HTU21D;56520;49.066;8.660;2023-07-31T13:40:18;24.35;49.93
69359;HTU21D;56520;49.066;8.660;2023-07-31T13:42:44;24.09;50.13
69359;HTU21D;56520;49.066;8.660;2023-07-31T13:45:09;23.95;51.45
69359;HTU21D;56520;49.066;8.660;2023-07-31T13:47:34;24.01;51.37
69359;HTU21D;56520;49.066;8.660;2023-07-31T13:50:02;24.01;52.48
69359;HTU21D;56520;49.066;8.660;2023-07-31T13:52:27;24.05;51.78
69359;HTU21D;56520;49.066;8.660;2023-07-31T13:54:53;24.18;50.75
69359;HTU21D;56520;49.066;8.660;2023-07-31T13:57:18;24.11;51.71
69359;HTU21D;56520;49.066;8.660;2023-07-31T13:59:43;24.03;52.28
69359;HTU21D;56520;49.066;8.660;2023-07-31T14:02:09;24.02;52.40
69359;HTU21D;56520;49.066;8.660;2023-07-31T14:04:34;24.04;51.08
69359;HTU21D;56520;49.066;8.660;2023-07-31T14:07:00;24.02;52.31
69359;HTU21D;56520;49.066;8.660;2023-07-31T14:09:25;24.11;50.94
69359;HTU21D;56520;49.066;8.660;2023-07-31T14:11:51;24.13;51.30
69359;HTU21D;56520;49.066;8.660;2023-07-31T14:14:17;24.04;52.02
69359;HTU21D;56520;49.066;8.660;2023-07-31T14:16:44;24.00;51.99
69359;HTU21D;56520;49.066;8.660;2023-07-31T14:19:10;23.98;52.27
69359;HTU21D;56520;49.066;8.660;2023-07-31T14:21:35;23.92;52.67
69359;HTU21D;56520;49.066;8.660;2023-07-31T14:24:01;23.97;51.62
69359;HTU21D;56520;49.066;8.660;2023-07-31T14:26:26;23.75;52.09
69359;HTU21D;56520;49.066;8.660;2023-07-31T14:28:52;23.64;52.82
69359;HTU21D;56520;49.066;8.660;2023-07-31T14:31:17;23.50;52.17
69359;HTU21D;56520;49.066;8.660;2023-07-31T14:33:43;23.37;53.36
69359;HTU21D;56520;49.066;8.660;2023-07-31T14:36:08;23.29;53.90
69359;HTU21D;56520;49.066;8.660;2023-07-31T14:38:33;23.20;54.41
69359;HTU21D;56520;49.066;8.660;2023-07-31T14:40:59;23.18;54.31
69359;HTU21D;56520;49.066;8.660;2023-07-31T14:43:24;23.11;54.43
69359;HTU21D;56520;49.066;8.660;2023-07-31T14:45:50;23.07;54.31
69359;HTU21D;56520;49.066;8.660;2023-07-31T14:48:15;23.07;54.16
69359;HTU21D;56520;49.066;8.660;2023-07-31T14:50:40;23.01;54.71
69359;HTU21D;56520;49.066;8.660;2023-07-31T14:53:06;23.03;54.83
69359;HTU21D;56520;49.066;8.660;2023-07-31T14:55:31;23.09;55.11
69359;HTU21D;56520;49.066;8.660;2023-07-31T14:57:57;23.17;55.11
69359;HTU21D;56520;49.066;8.660;2023-07-31T15:00:22;23.32;54.32
69359;HTU21D;56520;49.066;8.660;2023-07-31T15:02:49;23.54;53.46
69359;HTU21D;56520;49.066;8.660;2023-07-31T15:05:17;23.69;53.92
69359;HTU21D;56520;49.066;8.660;2023-07-31T15:07:43;23.73;53.62
69359;HTU21D;56520;49.066;8.660;2023-07-31T15:10:08;23.82;52.15
69359;HTU21D;56520;49.066;8.660;2023-07-31T15:12:34;23.79;52.90
69359;HTU21D;56520;49.066;8.660;2023-07-31T15:14:59;23.70;52.86
69359;HTU21D;56520;49.066;8.660;2023-07-31T15:17:25;23.62;53.27
69359;HTU21D;56520;49.066;8.660;2023-07-31T15:19:50;23.65;52.87
69359;HTU21D;56520;49.066;8.660;2023-07-31T15:22:16;23.61;53.36
69359;HTU21D;56520;49.066;8.660;2023-07-31T15:24:41;23.70;53.53
69359;HTU21D;56520;49.066;8.660;2023-07-31T15:27:06;23.64;53.88